createdAt,value
2018-02-16T00:01:01.203Z,128.07
2018-02-16T00:03:28.807Z,130.73
2018-02-16T00:05:56.539Z,125.60
2018-02-16T00:08:24.163Z,118.83
2018-02-16T00:10:51.759Z,122.27
2018-02-16T00:13:19.296Z,113.43
2018-02-16T00:15:47.607Z,123.90
2018-02-16T00:18:17.871Z,127.07
2018-02-16T00:20:45.455Z,129.70
2018-02-16T00:23:25.903Z,118.00
2018-02-16T00:29:01.435Z,122.40
2018-02-16T00:31:28.975Z,126.13
2018-02-16T00:33:56.517Z,114.27
2018-02-16T00:36:24.465Z,133.83
2018-02-16T00:38:52.003Z,129.83
2018-02-16T00:41:19.587Z,116.88
2018-02-16T00:43:47.159Z,130.77
2018-02-16T00:46:16.487Z,126.90
2018-02-16T00:48:44.019Z,137.00
2018-02-16T00:51:11.590Z,131.93
2018-02-16T00:53:39.179Z,147.40
2018-02-16T00:56:06.723Z,122.30
2018-02-16T00:58:34.511Z,152.65
2018-02-16T01:01:02.064Z,124.57
2018-02-16T01:03:29.603Z,158.23
2018-02-16T01:05:57.170Z,140.13
2018-02-16T01:08:24.716Z,138.87
2018-02-16T01:10:52.255Z,119.13
2018-02-16T01:13:19.823Z,115.60
2018-02-16T01:15:47.354Z,126.90
2018-02-16T01:18:16.321Z,117.00
2018-02-16T01:20:44.211Z,135.97
2018-02-16T01:23:11.742Z,139.63
2018-02-16T01:25:40.008Z,116.93
2018-02-16T01:28:07.574Z,139.90
2018-02-16T01:30:35.115Z,117.93
2018-02-16T01:33:02.655Z,110.93
2018-02-16T01:35:30.223Z,115.00
2018-02-16T01:37:58.537Z,127.23
2018-02-16T01:40:26.839Z,112.80
2018-02-16T01:42:55.015Z,125.75
2018-02-16T01:45:22.556Z,110.68
2018-02-16T01:47:50.095Z,127.30
2018-02-16T01:50:17.667Z,136.53
2018-02-16T01:52:45.202Z,129.43
2018-02-16T01:55:14.436Z,137.17
2018-02-16T01:57:42.007Z,134.27
2018-02-16T02:00:09.549Z,132.35
2018-02-16T02:02:37.095Z,145.80
2018-02-16T02:05:05.510Z,152.17
2018-02-16T02:07:33.051Z,141.07
2018-02-16T02:10:00.599Z,164.57
2018-02-16T02:12:28.172Z,151.57
2018-02-16T02:14:55.711Z,154.00
2018-02-16T02:17:23.247Z,144.53
2018-02-16T02:19:50.811Z,133.07
2018-02-16T02:22:19.120Z,157.07
2018-02-16T02:24:46.666Z,164.00
2018-02-16T02:27:25.851Z,160.65
2018-02-16T02:32:33.741Z,183.00
2018-02-16T02:35:01.278Z,149.70
2018-02-16T02:37:28.839Z,201.67
2018-02-16T02:39:56.436Z,173.40
2018-02-16T02:42:23.982Z,178.85
2018-02-16T02:44:51.552Z,148.38
2018-02-16T02:47:19.647Z,192.00
2018-02-16T02:49:47.187Z,161.93
2018-02-16T02:52:16.426Z,139.77
2018-02-16T02:54:44.755Z,145.70
2018-02-16T02:57:12.301Z,146.10
2018-02-16T02:59:39.841Z,136.87
2018-02-16T03:02:07.420Z,200.57
2018-02-16T03:04:35.720Z,159.63
2018-02-16T03:07:03.261Z,178.50
2018-02-16T03:09:31.043Z,184.63
2018-02-16T03:11:58.586Z,197.30
2018-02-16T03:14:26.136Z,154.17
2018-02-16T03:16:53.710Z,195.85
2018-02-16T03:19:21.251Z,138.85
2018-02-16T03:21:48.806Z,181.13
2018-02-16T03:24:16.571Z,150.95
2018-02-16T03:26:44.131Z,156.93
2018-02-16T03:29:12.207Z,161.30
2018-02-16T03:31:40.274Z,168.47
2018-02-16T03:34:07.810Z,159.20
2018-02-16T03:36:35.347Z,164.43
2018-02-16T03:39:02.923Z,152.87
2018-02-16T03:41:30.493Z,151.63
2018-02-16T03:43:58.808Z,151.23
2018-02-16T03:46:26.368Z,153.80
2018-02-16T03:48:53.907Z,129.13
2018-02-16T03:51:21.474Z,134.43
2018-02-16T03:53:49.591Z,164.97
2018-02-16T03:56:17.126Z,136.37
2018-02-16T03:58:44.666Z,146.20
2018-02-16T04:01:12.235Z,163.10
2018-02-16T04:03:39.772Z,134.67
2018-02-16T04:06:08.071Z,137.20
2018-02-16T04:08:35.643Z,122.90
2018-02-16T04:11:03.187Z,122.63
2018-02-16T04:13:30.733Z,136.87
2018-02-16T04:15:58.602Z,128.27
2018-02-16T04:18:26.906Z,132.60
2018-02-16T04:20:54.447Z,136.97
2018-02-16T04:23:22.011Z,130.60
2018-02-16T04:25:49.547Z,141.62
2018-02-16T04:28:17.086Z,137.37
2018-02-16T04:30:45.044Z,135.23
2018-02-16T04:33:14.705Z,119.10
2018-02-16T04:35:42.250Z,133.83
2018-02-16T04:38:10.904Z,130.53
2018-02-16T04:40:38.442Z,125.37
2018-02-16T04:43:05.993Z,119.50
2018-02-16T04:45:33.563Z,95.83
2018-02-16T04:48:01.103Z,118.63
2018-02-16T04:50:28.647Z,125.43
2018-02-16T04:52:56.207Z,142.60
2018-02-16T04:55:23.750Z,130.93
2018-02-16T04:57:51.287Z,136.10
2018-02-16T05:00:19.550Z,124.70
2018-02-16T05:02:47.107Z,115.40
2018-02-16T05:05:15.551Z,131.60
2018-02-16T05:07:43.112Z,112.33
2018-02-16T05:10:10.652Z,109.97
2018-02-16T05:12:38.960Z,120.03
2018-02-16T05:15:06.531Z,119.07
2018-02-16T05:17:34.071Z,118.70
2018-02-16T05:20:01.611Z,120.13
2018-02-16T05:22:29.399Z,122.37
2018-02-16T05:24:56.931Z,128.47
2018-02-16T05:27:25.240Z,112.12
2018-02-16T05:29:52.807Z,117.67
2018-02-16T05:32:20.867Z,112.40
2018-02-16T05:34:48.406Z,99.47
2018-02-16T05:37:16.633Z,117.57
2018-02-16T05:39:44.177Z,118.47
2018-02-16T05:42:11.718Z,129.67
2018-02-16T05:44:39.952Z,111.60
2018-02-16T05:47:08.280Z,129.30
2018-02-16T05:49:35.823Z,135.77
2018-02-16T05:52:03.386Z,120.15
2018-02-16T05:54:30.923Z,118.60
2018-02-16T05:56:59.232Z,106.80
2018-02-16T05:59:26.802Z,107.50
2018-02-16T06:01:54.357Z,122.63
2018-02-16T06:04:21.918Z,122.67
2018-02-16T06:06:49.698Z,115.35
2018-02-16T06:09:17.241Z,124.20
2018-02-16T06:11:45.583Z,130.67
2018-02-16T06:14:25.947Z,114.72
2018-02-16T06:19:08.505Z,127.70
2018-02-16T06:21:36.153Z,112.77
2018-02-16T06:24:03.683Z,139.67
2018-02-16T06:26:31.243Z,116.33
2018-02-16T06:28:59.611Z,128.57
2018-02-16T06:31:27.183Z,127.57
2018-02-16T06:33:55.643Z,126.17
2018-02-16T06:36:23.211Z,106.82
2018-02-16T06:38:51.652Z,113.20
2018-02-16T06:41:19.309Z,132.65
2018-02-16T06:43:47.027Z,116.97
2018-02-16T06:46:15.525Z,127.47
2018-02-16T06:48:43.084Z,119.33
2018-02-16T06:51:12.083Z,107.28
2018-02-16T06:53:39.703Z,125.23
2018-02-16T06:56:07.248Z,112.63
2018-02-16T06:58:35.106Z,121.07
2018-02-16T07:01:02.729Z,106.23
2018-02-16T07:03:30.786Z,100.70
2018-02-16T07:05:58.354Z,95.03
2018-02-16T07:08:26.651Z,110.77
2018-02-16T07:10:54.192Z,104.03
2018-02-16T07:13:22.742Z,85.57
2018-02-16T07:15:50.275Z,86.73
2018-02-16T07:18:18.650Z,90.53
2018-02-16T07:20:46.224Z,97.17
2018-02-16T07:23:16.433Z,87.35
2018-02-16T07:25:43.988Z,97.13
2018-02-16T07:28:11.567Z,80.28
2018-02-16T07:30:39.096Z,91.37
2018-02-16T07:33:06.638Z,77.33
2018-02-16T07:35:34.871Z,69.03
2018-02-16T07:38:02.401Z,61.97
2018-02-16T07:40:29.975Z,63.60
2018-02-16T07:42:57.548Z,54.38
2018-02-16T07:45:25.129Z,61.27
2018-02-16T07:47:52.718Z,61.07
2018-02-16T07:50:20.321Z,45.53
2018-02-16T07:52:47.943Z,40.37
2018-02-16T07:55:16.352Z,46.17
2018-02-16T07:57:44.228Z,39.43
2018-02-16T08:00:11.759Z,42.43
2018-02-16T08:02:39.296Z,37.43
2018-02-16T08:05:07.692Z,32.40
2018-02-16T08:07:35.239Z,32.00
2018-02-16T08:10:03.547Z,28.60
2018-02-16T08:12:31.127Z,28.57
2018-02-16T08:14:58.715Z,34.60
2018-02-16T08:17:26.308Z,40.30
2018-02-16T08:19:55.249Z,41.70
2018-02-16T08:22:22.783Z,40.17
2018-02-16T08:24:50.329Z,32.33
2018-02-16T08:27:17.900Z,28.57
2018-02-16T08:29:45.531Z,23.85
2018-02-16T08:32:23.678Z,28.35
2018-02-16T08:39:37.130Z,24.50
2018-02-16T08:42:04.687Z,25.50
2018-02-16T08:44:32.500Z,22.97
2018-02-16T08:47:00.146Z,20.83
2018-02-16T08:49:27.682Z,22.70
2018-02-16T08:51:55.279Z,22.20
2018-02-16T08:54:22.859Z,25.73
2018-02-16T08:56:50.526Z,23.63
2018-02-16T08:59:18.835Z,17.63
2018-02-16T09:01:47.190Z,16.35
2018-02-16T09:04:16.531Z,21.12
2018-02-16T09:06:44.894Z,22.20
2018-02-16T09:09:12.466Z,15.45
2018-02-16T09:11:39.995Z,21.70
2018-02-16T09:14:07.568Z,14.07
2018-02-16T09:16:35.131Z,12.80
2018-02-16T09:19:02.675Z,17.43
2018-02-16T09:21:31.502Z,13.57
2018-02-16T09:23:59.382Z,12.23
2018-02-16T09:26:26.916Z,14.98
2018-02-16T09:28:54.450Z,8.10
2018-02-16T09:31:22.089Z,11.33
2018-02-16T09:33:49.696Z,12.17
2018-02-16T09:36:17.504Z,13.03
2018-02-16T09:38:46.559Z,13.70
2018-02-16T09:41:16.746Z,10.48
2018-02-16T09:43:45.047Z,12.27
2018-02-16T09:46:14.091Z,11.25
2018-02-16T09:48:41.624Z,10.63
2018-02-16T09:51:09.159Z,10.60
2018-02-16T09:53:36.718Z,8.63
2018-02-16T09:56:04.254Z,9.73
2018-02-16T09:58:32.738Z,11.13
2018-02-16T10:01:01.227Z,6.43
2018-02-16T10:03:28.830Z,8.73
2018-02-16T10:05:56.413Z,9.13
2018-02-16T10:08:24.290Z,8.63
2018-02-16T10:10:51.830Z,7.73
2018-02-16T10:13:19.365Z,6.53
2018-02-16T10:15:46.929Z,12.50
2018-02-16T10:18:15.469Z,9.40
2018-02-16T10:20:45.108Z,12.93
2018-02-16T10:23:13.007Z,9.50
2018-02-16T10:25:40.636Z,6.20
2018-02-16T10:28:08.520Z,11.17
2018-02-16T10:30:36.158Z,8.37
2018-02-16T10:33:03.698Z,6.43
2018-02-16T10:35:31.230Z,8.63
2018-02-16T10:37:58.806Z,6.57
2018-02-16T10:40:26.350Z,7.53
2018-02-16T10:42:54.142Z,8.40
2018-02-16T10:45:21.711Z,8.13
2018-02-16T10:47:50.019Z,6.10
2018-02-16T10:50:17.600Z,10.48
2018-02-16T10:52:45.457Z,10.30
2018-02-16T10:55:15.500Z,6.22
2018-02-16T10:57:43.030Z,8.27
2018-02-16T11:00:10.590Z,7.47
2018-02-16T11:05:47.123Z,7.30
2018-02-16T11:08:22.059Z,7.37
2018-02-16T11:10:50.303Z,7.70
2018-02-16T11:13:18.438Z,11.07
2018-02-16T11:15:45.962Z,7.50
2018-02-16T11:18:15.350Z,7.60
2018-02-16T11:20:44.139Z,7.50
2018-02-16T11:23:11.679Z,12.27
2018-02-16T11:25:39.414Z,13.40
2018-02-16T11:28:08.056Z,18.07
2018-02-16T11:30:36.515Z,10.10
2018-02-16T11:33:04.518Z,9.23
2018-02-16T11:35:32.095Z,7.97
2018-02-16T11:38:00.391Z,8.53
2018-02-16T11:40:27.971Z,10.13
2018-02-16T11:42:55.802Z,8.77
2018-02-16T11:45:23.370Z,8.70
2018-02-16T11:47:51.684Z,7.97
2018-02-16T11:50:19.991Z,9.30
2018-02-16T11:52:47.523Z,12.40
2018-02-16T11:55:17.703Z,12.00
2018-02-16T11:57:45.248Z,8.53
2018-02-16T12:00:14.471Z,9.40
2018-02-16T12:02:42.557Z,9.90
2018-02-16T12:05:10.918Z,13.40
2018-02-16T12:07:38.451Z,9.60
2018-02-16T12:10:06.095Z,9.60
2018-02-16T12:12:33.651Z,10.00
2018-02-16T12:15:02.649Z,13.70
2018-02-16T12:17:30.976Z,13.93
2018-02-16T12:19:58.958Z,11.30
2018-02-16T12:22:26.507Z,12.67
2018-02-16T12:24:54.067Z,15.13
2018-02-16T12:27:21.625Z,14.50
2018-02-16T12:29:49.188Z,13.60
2018-02-16T12:32:16.780Z,12.13
2018-02-16T12:34:44.347Z,17.77
2018-02-16T12:37:11.923Z,10.27
2018-02-16T12:39:40.417Z,9.73
2018-02-16T12:42:08.741Z,11.03
2018-02-16T12:44:37.016Z,10.00
2018-02-16T12:47:05.368Z,13.50
2018-02-16T12:49:37.164Z,14.15
2018-02-16T12:52:04.747Z,11.33
2018-02-16T12:54:33.865Z,13.05
2018-02-16T12:57:02.272Z,10.20
2018-02-16T12:59:30.747Z,10.67
2018-02-16T13:01:59.282Z,12.43
2018-02-16T13:04:26.853Z,10.83
2018-02-16T13:06:54.976Z,12.17
2018-02-16T13:09:42.255Z,13.36
2018-02-16T13:12:09.812Z,11.27
2018-02-16T13:14:39.342Z,12.37
2018-02-16T13:17:07.109Z,26.83
2018-02-16T13:19:34.659Z,35.80
2018-02-16T13:22:02.202Z,47.80
2018-02-16T13:24:29.777Z,37.60
2018-02-16T13:26:57.328Z,34.90
2018-02-16T13:29:24.941Z,15.40
2018-02-16T15:41:46.136Z,37.10
2018-02-16T15:44:25.779Z,35.97
2018-02-16T15:52:29.187Z,34.30
2018-02-16T15:54:56.759Z,33.83
2018-02-16T15:57:24.317Z,37.30
2018-02-16T15:59:52.145Z,39.03
2018-02-16T16:02:20.468Z,42.55
2018-02-16T16:04:48.023Z,42.80
2018-02-16T16:07:17.256Z,42.88
2018-02-16T16:09:44.806Z,44.70
2018-02-16T16:12:12.366Z,49.27
2018-02-16T16:14:39.977Z,39.07
2018-02-16T16:17:07.536Z,46.75
2018-02-16T16:19:35.091Z,39.50
2018-02-16T16:22:03.056Z,41.03
2018-02-16T16:24:30.607Z,60.50
2018-02-16T16:26:58.159Z,55.63
2018-02-16T16:29:25.752Z,62.40
2018-02-16T16:31:53.310Z,55.72
2018-02-16T16:34:20.886Z,49.43
2018-02-16T16:36:48.478Z,56.25
2018-02-16T16:39:16.468Z,57.47
2018-02-16T16:41:44.023Z,59.67
2018-02-16T16:44:12.200Z,64.47
2018-02-16T16:46:39.735Z,60.57
2018-02-16T16:49:07.294Z,62.70
2018-02-16T16:51:34.857Z,64.03
2018-02-16T16:54:02.395Z,75.65
2018-02-16T16:56:29.939Z,79.47
2018-02-16T16:58:57.502Z,98.43
2018-02-16T17:01:25.041Z,80.93
2018-02-16T17:03:53.359Z,77.70
2018-02-16T17:06:21.442Z,95.10
2018-02-16T17:08:48.979Z,86.10
2018-02-16T17:11:16.566Z,95.12
2018-02-16T17:13:44.822Z,85.83
2018-02-16T17:16:12.492Z,97.50
2018-02-16T17:18:40.792Z,87.70
2018-02-16T17:21:08.381Z,108.30
2018-02-16T17:23:35.928Z,119.80
2018-02-16T17:26:03.484Z,164.70
2018-02-16T17:28:31.670Z,167.13
2018-02-16T17:30:59.211Z,145.20
2018-02-16T17:33:26.772Z,120.47
2018-02-16T17:35:54.335Z,106.00
2018-02-16T17:38:21.875Z,108.97
2018-02-16T17:40:49.429Z,114.87
2018-02-16T17:43:19.012Z,119.07
2018-02-16T17:45:47.238Z,118.10
2018-02-16T17:48:17.107Z,92.00
2018-02-16T17:50:45.937Z,104.73
2018-02-16T17:53:15.539Z,104.85
2018-02-16T17:55:43.923Z,88.93
2018-02-16T17:58:11.524Z,101.80
2018-02-16T18:00:39.799Z,93.93
2018-02-16T18:03:07.396Z,106.07
2018-02-16T18:05:57.352Z,110.30
2018-02-16T18:08:24.907Z,117.40
2018-02-16T18:10:52.478Z,114.15
2018-02-16T18:13:20.060Z,89.87
2018-02-16T18:15:48.425Z,120.20
2018-02-16T18:18:16.443Z,125.68
2018-02-16T18:20:44.816Z,114.57
2018-02-16T18:23:14.047Z,114.40
2018-02-16T18:25:41.583Z,96.30
2018-02-16T18:28:09.679Z,107.43
2018-02-16T18:30:37.279Z,100.33
2018-02-16T18:33:04.820Z,104.40
2018-02-16T18:35:32.394Z,113.83
2018-02-16T18:38:00.714Z,104.83
2018-02-16T18:40:28.255Z,109.10
2018-02-16T18:42:55.824Z,116.73
2018-02-16T18:45:23.380Z,99.77
2018-02-16T18:47:51.747Z,118.00
2018-02-16T18:50:20.007Z,121.53
2018-02-16T18:52:47.555Z,119.97
2018-02-16T18:55:16.563Z,105.68
2018-02-16T18:57:44.147Z,169.90
2018-02-16T19:00:11.690Z,189.35
2018-02-16T19:02:39.822Z,265.67
2018-02-16T19:05:08.764Z,367.17
2018-02-16T19:07:36.371Z,452.27
2018-02-16T19:10:04.685Z,447.60
2018-02-16T19:12:35.913Z,330.37
2018-02-16T19:15:03.476Z,549.40
2018-02-16T19:17:31.026Z,412.97
2018-02-16T19:19:58.601Z,297.07
2018-02-16T19:22:26.147Z,241.20
2018-02-16T19:24:53.854Z,233.18
2018-02-16T19:27:21.471Z,233.80
2018-02-16T19:29:49.252Z,160.07
2018-02-16T19:32:16.836Z,291.20
2018-02-16T19:34:45.239Z,284.60
2018-02-16T19:37:14.036Z,382.87
2018-02-16T19:39:42.038Z,529.63
2018-02-16T19:42:10.065Z,469.03
2018-02-16T19:44:38.408Z,478.30
2018-02-16T19:47:06.020Z,557.63
2018-02-16T19:49:34.280Z,599.80
2018-02-16T19:52:01.917Z,560.10
2018-02-16T19:54:31.386Z,453.63
2018-02-16T19:56:59.083Z,435.63
2018-02-16T19:59:26.984Z,476.70
2018-02-16T20:01:56.784Z,611.43
2018-02-16T20:04:24.474Z,438.60
2018-02-16T20:06:52.151Z,389.53
2018-02-16T20:09:20.080Z,583.55
2018-02-16T20:11:48.345Z,491.10
2018-02-16T20:14:17.257Z,423.42
2018-02-16T20:16:45.975Z,499.20
2018-02-16T20:19:24.919Z,516.67
2018-02-16T20:24:24.933Z,153.50
2018-02-16T20:26:52.982Z,296.98
2018-02-16T20:29:21.616Z,254.57
2018-02-16T20:31:49.592Z,321.50
2018-02-16T20:34:17.599Z,357.07
2018-02-16T20:36:45.446Z,415.17
2018-02-16T20:39:21.741Z,418.63
2018-02-16T20:41:49.390Z,340.10
2018-02-16T20:44:27.073Z,380.94
2018-02-16T20:46:54.689Z,291.73
2018-02-16T20:49:22.396Z,481.40
2018-02-16T20:51:50.695Z,358.10
2018-02-16T20:54:18.302Z,459.13
2018-02-16T20:56:46.048Z,377.83
2018-02-16T20:59:23.700Z,466.03
2018-02-16T21:10:31.395Z,519.80
2018-02-16T21:12:59.865Z,573.50
2018-02-16T21:15:27.521Z,562.97
2018-02-16T21:17:55.940Z,445.83
2018-02-16T21:20:24.380Z,452.20
2018-02-16T21:22:52.211Z,565.03
2018-02-16T21:25:19.816Z,421.63
2018-02-16T21:27:47.390Z,513.87
2018-02-16T21:30:17.388Z,552.25
2018-02-16T21:32:45.067Z,465.97
2018-02-16T21:35:14.492Z,403.53
2018-02-16T21:37:42.174Z,423.17
2018-02-16T21:40:10.407Z,613.43
2018-02-16T21:42:38.011Z,557.97
2018-02-16T21:45:05.664Z,533.87
2018-02-16T21:47:34.004Z,480.55
2018-02-16T21:50:02.114Z,581.43
2018-02-16T21:52:31.588Z,640.37
2018-02-16T21:54:59.195Z,324.50
2018-02-16T21:57:27.763Z,376.87
2018-02-16T21:59:55.412Z,732.87
2018-02-16T22:02:23.091Z,671.30
2018-02-16T22:04:50.667Z,687.77
2018-02-16T22:07:18.303Z,464.77
2018-02-16T22:09:45.935Z,520.80
2018-02-16T22:12:14.604Z,503.77
2018-02-16T22:14:42.217Z,667.57
2018-02-16T22:17:09.828Z,620.47
2018-02-16T22:19:38.390Z,645.10
2018-02-16T22:22:07.174Z,629.27
2018-02-16T22:24:34.870Z,690.30
2018-02-16T22:27:03.285Z,756.83
2018-02-16T22:29:31.842Z,678.53
2018-02-16T22:32:00.533Z,674.07
2018-02-16T22:34:29.126Z,650.43
2018-02-16T22:36:57.150Z,674.10
2018-02-16T22:39:24.757Z,499.23
2018-02-16T22:41:52.335Z,535.33
2018-02-16T22:44:20.471Z,463.20
2018-02-16T22:46:49.100Z,609.87
2018-02-16T22:49:17.387Z,567.93
2018-02-16T22:51:45.691Z,364.17
2018-02-16T22:54:25.856Z,385.10
2018-02-16T23:01:00.420Z,231.10
2018-02-16T23:03:27.953Z,225.17
2018-02-16T23:05:56.236Z,231.10
2018-02-16T23:08:25.135Z,219.23
2018-02-16T23:10:52.779Z,251.93
2018-02-16T23:13:20.332Z,210.88
2018-02-16T23:15:47.899Z,249.33
2018-02-16T23:18:16.359Z,272.67
2018-02-16T23:20:43.907Z,336.03
2018-02-16T23:23:12.255Z,327.70
2018-02-16T23:25:39.800Z,312.43
2018-02-16T23:28:07.343Z,323.20
2018-02-16T23:30:35.551Z,318.47
2018-02-16T23:33:03.089Z,328.50
2018-02-16T23:35:30.643Z,265.37
2018-02-16T23:37:58.210Z,240.60
2018-02-16T23:40:25.754Z,221.13
2018-02-16T23:42:53.501Z,209.27
2018-02-16T23:45:22.121Z,267.17
2018-02-16T23:47:50.151Z,277.37
2018-02-16T23:50:17.802Z,245.77
2018-02-16T23:52:45.723Z,260.13
2018-02-16T23:55:23.764Z,232.85
